createdAt,value
2022-12-11T00:01:52.514Z,23.89
2022-12-11T00:04:18.957Z,23.88
2022-12-11T00:06:45.412Z,23.14
2022-12-11T00:09:11.787Z,23.84
2022-12-11T00:11:38.215Z,23.19
2022-12-11T00:14:04.932Z,23.32
2022-12-11T00:16:31.340Z,23.99
2022-12-11T00:19:00.131Z,23.98
2022-12-11T00:21:26.675Z,25.30
2022-12-11T00:23:53.042Z,25.69
2022-12-11T00:26:19.455Z,26.03
2022-12-11T00:28:46.121Z,26.55
2022-12-11T00:31:12.812Z,26.02
2022-12-11T00:33:40.206Z,26.73
2022-12-11T00:36:06.632Z,27.06
2022-12-11T00:38:33.311Z,27.20
2022-12-11T00:40:59.965Z,26.66
2022-12-11T00:43:26.314Z,27.43
2022-12-11T00:45:52.826Z,27.45
2022-12-11T00:48:19.587Z,26.58
2022-12-11T00:50:46.082Z,27.13
2022-12-11T00:53:12.783Z,28.53
2022-12-11T00:55:39.376Z,27.52
2022-12-11T00:58:05.951Z,26.76
2022-12-11T01:00:33.436Z,27.07
2022-12-11T01:03:00.038Z,27.27
2022-12-11T01:05:26.715Z,26.78
2022-12-11T01:07:53.719Z,26.43
2022-12-11T01:10:20.203Z,25.95
2022-12-11T01:12:46.929Z,25.94
2022-12-11T01:15:14.007Z,27.21
2022-12-11T01:17:42.818Z,25.93
2022-12-11T01:20:11.778Z,26.29
2022-12-11T01:22:38.236Z,26.18
2022-12-11T01:25:04.634Z,26.22
2022-12-11T01:27:31.061Z,25.96
2022-12-11T01:29:57.538Z,26.60
2022-12-11T01:32:24.110Z,26.56
2022-12-11T01:34:50.469Z,25.86
2022-12-11T01:37:17.281Z,25.84
2022-12-11T01:39:44.243Z,26.39
2022-12-11T01:42:12.837Z,25.79
2022-12-11T01:44:39.747Z,26.17
2022-12-11T01:47:08.955Z,26.98
2022-12-11T01:49:35.299Z,25.75
2022-12-11T01:52:01.676Z,26.66
2022-12-11T01:54:28.123Z,26.41
2022-12-11T01:56:54.892Z,27.43
2022-12-11T01:59:21.456Z,28.28
2022-12-11T02:01:47.901Z,27.90
2022-12-11T02:04:14.385Z,27.84
2022-12-11T02:06:40.773Z,27.57
2022-12-11T02:09:07.156Z,27.46
2022-12-11T02:11:34.771Z,27.88
2022-12-11T02:14:01.171Z,27.27
2022-12-11T02:16:29.925Z,27.41
2022-12-11T02:18:56.339Z,27.39
2022-12-11T02:21:23.027Z,27.52
2022-12-11T02:23:49.680Z,27.30
2022-12-11T02:26:23.345Z,27.27
2022-12-11T02:28:49.924Z,27.00
2022-12-11T02:31:16.736Z,27.56
2022-12-11T02:33:43.559Z,26.12
2022-12-11T02:36:10.292Z,26.73
2022-12-11T02:38:36.765Z,26.34
2022-12-11T02:41:03.542Z,25.30
2022-12-11T02:43:29.896Z,25.36
2022-12-11T02:45:56.734Z,25.15
2022-12-11T02:48:23.254Z,25.99
2022-12-11T02:50:49.808Z,25.97
2022-12-11T02:53:16.479Z,25.20
2022-12-11T02:55:42.817Z,25.58
2022-12-11T02:58:09.216Z,26.07
2022-12-11T03:00:35.588Z,26.34
2022-12-11T03:03:01.989Z,27.52
2022-12-11T03:05:28.532Z,26.39
2022-12-11T03:07:55.082Z,26.87
2022-12-11T03:10:21.761Z,26.81
2022-12-11T03:12:53.164Z,26.29
2022-12-11T03:15:20.171Z,28.03
2022-12-11T03:17:46.561Z,26.69
2022-12-11T03:20:13.000Z,26.67
2022-12-11T03:22:39.450Z,27.24
2022-12-11T03:25:05.952Z,26.38
2022-12-11T03:27:32.616Z,25.11
2022-12-11T03:29:58.987Z,24.65
2022-12-11T03:32:25.560Z,23.74
2022-12-11T03:34:56.930Z,24.05
2022-12-11T03:37:25.124Z,24.26
2022-12-11T03:39:53.380Z,23.85
2022-12-11T03:42:19.769Z,23.88
2022-12-11T03:44:46.146Z,24.52
2022-12-11T03:47:12.750Z,23.91
2022-12-11T03:49:39.232Z,24.34
2022-12-11T03:52:05.638Z,24.72
2022-12-11T03:54:32.096Z,24.96
2022-12-11T03:57:01.185Z,23.99
2022-12-11T03:59:29.781Z,23.83
2022-12-11T04:01:56.176Z,25.04
2022-12-11T04:04:22.729Z,24.28
2022-12-11T04:06:49.332Z,24.18
2022-12-11T04:09:15.715Z,23.81
2022-12-11T04:11:42.094Z,23.92
2022-12-11T04:14:08.654Z,24.62
2022-12-11T04:16:35.221Z,23.36
2022-12-11T04:19:01.615Z,24.30
2022-12-11T04:21:27.990Z,24.49
2022-12-11T04:23:57.436Z,24.49
2022-12-11T04:26:23.902Z,24.73
2022-12-11T04:28:50.757Z,24.46
2022-12-11T04:31:19.675Z,23.37
2022-12-11T04:33:46.194Z,23.84
2022-12-11T04:36:12.534Z,24.31
2022-12-11T04:38:39.286Z,24.02
2022-12-11T04:41:06.286Z,23.83
2022-12-11T04:43:32.991Z,23.71
2022-12-11T04:45:59.491Z,23.13
2022-12-11T04:48:26.524Z,24.54
2022-12-11T04:50:53.911Z,23.67
2022-12-11T04:53:20.528Z,23.24
2022-12-11T04:55:47.476Z,23.48
2022-12-11T04:58:14.271Z,23.28
2022-12-11T05:00:40.715Z,23.64
2022-12-11T05:03:08.203Z,23.25
2022-12-11T05:05:34.581Z,23.98
2022-12-11T05:08:08.223Z,23.20
2022-12-11T05:10:34.782Z,24.08
2022-12-11T05:13:03.767Z,24.19
2022-12-11T05:15:30.110Z,24.79
2022-12-11T05:17:56.601Z,23.80
2022-12-11T05:20:22.988Z,25.13
2022-12-11T05:22:49.481Z,24.97
2022-12-11T05:25:15.922Z,23.96
2022-12-11T05:27:42.305Z,24.90
2022-12-11T05:30:08.698Z,23.61
2022-12-11T05:32:37.147Z,24.19
2022-12-11T05:35:06.403Z,24.26
2022-12-11T05:37:33.412Z,23.83
2022-12-11T05:40:02.614Z,24.04
2022-12-11T05:42:30.000Z,24.62
2022-12-11T05:44:56.510Z,24.72
2022-12-11T05:47:22.979Z,23.85
2022-12-11T05:49:52.241Z,24.99
2022-12-11T05:52:18.860Z,25.18
2022-12-11T05:54:45.189Z,25.15
2022-12-11T05:57:12.587Z,24.39
2022-12-11T05:59:38.930Z,24.19
2022-12-11T06:02:05.461Z,24.53
2022-12-11T06:04:31.899Z,25.07
2022-12-11T06:06:58.361Z,24.00
2022-12-11T06:09:26.013Z,24.62
2022-12-11T06:11:52.409Z,24.71
2022-12-11T06:14:20.203Z,26.02
2022-12-11T06:16:46.624Z,25.75
2022-12-11T06:19:13.278Z,25.15
2022-12-11T06:21:40.041Z,25.11
2022-12-11T06:24:07.767Z,24.58
2022-12-11T06:26:34.529Z,25.11
2022-12-11T06:29:01.069Z,24.67
2022-12-11T06:31:27.861Z,24.71
2022-12-11T06:33:54.365Z,26.15
2022-12-11T06:36:20.945Z,26.05
2022-12-11T06:38:47.415Z,25.32
2022-12-11T06:41:13.807Z,26.17
2022-12-11T06:43:40.266Z,26.01
2022-12-11T06:46:06.776Z,25.66
2022-12-11T06:48:34.092Z,26.74
2022-12-11T06:51:00.548Z,26.80
2022-12-11T06:53:26.940Z,27.29
2022-12-11T06:55:53.844Z,28.52
2022-12-11T06:58:20.207Z,30.26
2022-12-11T07:00:46.724Z,31.22
2022-12-11T07:03:13.150Z,30.64
2022-12-11T07:05:39.750Z,31.15
2022-12-11T07:08:07.151Z,30.99
2022-12-11T07:10:35.750Z,29.71
2022-12-11T07:13:03.108Z,28.78
2022-12-11T07:15:30.848Z,27.61
2022-12-11T07:17:57.219Z,27.12
2022-12-11T07:20:25.661Z,27.94
2022-12-11T07:22:52.026Z,27.82
2022-12-11T07:25:21.039Z,27.24
2022-12-11T07:27:47.454Z,26.88
2022-12-11T07:30:14.462Z,27.62
2022-12-11T07:32:41.020Z,27.17
2022-12-11T07:35:07.547Z,28.65
2022-12-11T07:37:34.026Z,28.76
2022-12-11T07:40:00.724Z,28.26
2022-12-11T07:42:29.409Z,27.48
2022-12-11T07:44:56.821Z,29.70
2022-12-11T07:47:31.331Z,30.10
2022-12-11T07:49:59.111Z,30.54
2022-12-11T07:52:25.491Z,29.94
2022-12-11T07:54:52.195Z,31.90
2022-12-11T07:57:21.078Z,31.17
2022-12-11T07:59:49.518Z,28.79
2022-12-11T08:02:16.014Z,31.15
2022-12-11T08:04:44.599Z,33.32
2022-12-11T08:07:11.732Z,31.43
2022-12-11T08:09:39.205Z,30.42
2022-12-11T08:12:05.647Z,30.04
2022-12-11T08:14:32.121Z,29.57
2022-12-11T08:16:58.810Z,30.69
2022-12-11T08:19:25.167Z,30.60
2022-12-11T08:21:51.631Z,29.84
2022-12-11T08:24:17.965Z,30.59
2022-12-11T08:26:44.344Z,30.13
2022-12-11T08:29:10.695Z,30.71
2022-12-11T08:31:37.407Z,32.29
2022-12-11T08:34:04.105Z,30.26
2022-12-11T08:36:30.949Z,29.00
2022-12-11T08:38:57.405Z,28.23
2022-12-11T08:41:24.214Z,29.15
2022-12-11T08:43:52.063Z,28.15
2022-12-11T08:46:18.580Z,29.10
2022-12-11T08:48:47.483Z,31.60
2022-12-11T08:51:16.224Z,29.26
2022-12-11T08:53:43.425Z,29.76
2022-12-11T08:56:10.209Z,29.96
2022-12-11T08:58:36.662Z,29.62
2022-12-11T09:01:03.246Z,29.07
2022-12-11T09:03:29.663Z,28.08
2022-12-11T09:05:56.506Z,29.28
2022-12-11T09:08:23.284Z,28.62
2022-12-11T09:10:49.686Z,28.06
2022-12-11T09:13:16.072Z,27.91
2022-12-11T09:15:42.506Z,27.69
2022-12-11T09:18:08.910Z,28.77
2022-12-11T09:20:35.238Z,29.31
2022-12-11T09:23:01.776Z,30.86
2022-12-11T09:25:28.143Z,32.99
2022-12-11T09:27:54.734Z,32.50
2022-12-11T09:30:21.181Z,33.48
2022-12-11T09:32:47.950Z,33.19
2022-12-11T09:35:14.691Z,32.65
2022-12-11T09:37:41.143Z,31.98
2022-12-11T09:40:08.149Z,30.61
2022-12-11T09:42:34.689Z,30.19
2022-12-11T09:45:01.167Z,30.59
2022-12-11T09:47:27.561Z,29.71
2022-12-11T09:49:53.947Z,27.96
2022-12-11T09:52:23.657Z,27.03
2022-12-11T09:54:50.440Z,26.76
2022-12-11T09:57:16.991Z,26.38
2022-12-11T09:59:45.726Z,26.27
2022-12-11T10:02:12.232Z,26.36
2022-12-11T10:04:38.623Z,26.20
2022-12-11T10:07:05.004Z,24.89
2022-12-11T10:09:31.410Z,26.49
2022-12-11T10:11:57.826Z,25.35
2022-12-11T10:14:27.904Z,25.90
2022-12-11T10:16:54.550Z,25.65
2022-12-11T10:19:21.934Z,24.05
2022-12-11T10:21:48.804Z,22.94
2022-12-11T10:24:33.778Z,21.94
2022-12-11T10:27:04.075Z,21.63
2022-12-11T10:29:32.722Z,21.35
2022-12-11T10:31:59.182Z,21.79
2022-12-11T10:34:25.552Z,21.99
2022-12-11T10:36:57.291Z,22.49
2022-12-11T10:39:26.805Z,22.22
2022-12-11T10:41:53.501Z,22.76
2022-12-11T10:44:20.160Z,23.34
2022-12-11T10:46:46.694Z,23.19
2022-12-11T10:49:13.359Z,22.89
2022-12-11T10:51:40.227Z,22.80
2022-12-11T10:54:07.743Z,23.26
2022-12-11T10:56:34.455Z,23.21
2022-12-11T10:59:00.906Z,22.97
2022-12-11T11:01:28.232Z,22.94
2022-12-11T11:03:54.993Z,23.54
2022-12-11T11:06:21.782Z,21.75
2022-12-11T11:08:48.627Z,23.55
2022-12-11T11:11:17.419Z,23.37
2022-12-11T11:13:43.849Z,23.83
2022-12-11T11:16:12.591Z,23.60
2022-12-11T11:18:39.389Z,22.90
2022-12-11T11:21:05.920Z,23.04
2022-12-11T11:23:32.317Z,23.81
2022-12-11T11:25:59.040Z,24.69
2022-12-11T11:28:25.424Z,24.79
2022-12-11T11:30:52.456Z,25.09
2022-12-11T11:33:19.085Z,25.00
2022-12-11T11:35:47.916Z,25.20
2022-12-11T11:38:14.387Z,24.54
2022-12-11T11:40:40.914Z,24.25
2022-12-11T11:43:07.258Z,24.15
2022-12-11T11:45:33.639Z,23.59
2022-12-11T11:48:11.841Z,24.10
2022-12-11T11:50:38.340Z,25.92
2022-12-11T11:53:05.187Z,24.30
2022-12-11T11:55:31.762Z,24.20
2022-12-11T11:57:59.223Z,25.00
2022-12-11T12:00:28.880Z,25.33
2022-12-11T12:02:59.713Z,24.79
2022-12-11T12:05:28.535Z,23.64
2022-12-11T12:07:55.020Z,24.42
2022-12-11T12:10:21.405Z,25.12
2022-12-11T12:12:47.780Z,25.06
2022-12-11T12:15:14.306Z,24.51
2022-12-11T12:17:40.958Z,24.78
2022-12-11T12:20:07.348Z,24.41
2022-12-11T12:22:34.217Z,24.53
2022-12-11T12:25:01.091Z,24.21
2022-12-11T12:27:51.495Z,24.11
2022-12-11T12:30:20.355Z,25.37
2022-12-11T12:32:49.220Z,24.81
2022-12-11T12:35:16.182Z,25.15
2022-12-11T12:37:42.806Z,25.29
2022-12-11T12:40:09.257Z,24.43
2022-12-11T12:42:35.652Z,25.16
2022-12-11T12:45:02.045Z,24.85
2022-12-11T12:47:28.437Z,25.10
2022-12-11T12:49:54.794Z,24.60
2022-12-11T12:52:23.529Z,24.30
2022-12-11T12:54:51.094Z,25.07
2022-12-11T12:57:17.903Z,24.56
2022-12-11T12:59:44.464Z,25.16
2022-12-11T13:02:10.967Z,25.00
2022-12-11T13:07:24.526Z,25.08
2022-12-11T13:09:50.905Z,25.55
2022-12-11T13:12:17.328Z,25.27
2022-12-11T13:14:44.033Z,25.77
2022-12-11T13:17:10.505Z,25.10
2022-12-11T13:19:42.324Z,24.76
2022-12-11T13:22:09.679Z,24.54
2022-12-11T13:24:36.320Z,24.76
2022-12-11T13:27:02.973Z,24.78
2022-12-11T13:29:29.432Z,24.97
2022-12-11T13:31:56.103Z,24.73
2022-12-11T13:34:22.526Z,25.06
2022-12-11T13:36:49.751Z,26.10
2022-12-11T13:39:17.800Z,24.96
2022-12-11T13:41:44.528Z,25.27
2022-12-11T13:44:11.278Z,26.48
2022-12-11T13:46:38.015Z,26.64
2022-12-11T13:49:04.385Z,27.80
2022-12-11T13:51:30.838Z,27.76
2022-12-11T13:53:57.560Z,29.22
2022-12-11T13:56:26.536Z,27.90
2022-12-11T13:58:53.246Z,29.18
2022-12-11T14:01:19.738Z,25.97
2022-12-11T14:03:47.268Z,43.77
2022-12-11T14:06:18.653Z,28.49
2022-12-11T14:08:46.182Z,25.79
2022-12-11T14:11:12.550Z,25.48
2022-12-11T14:13:39.554Z,26.48
2022-12-11T14:16:06.244Z,27.27
2022-12-11T14:18:32.970Z,25.48
2022-12-11T14:21:02.419Z,26.70
2022-12-11T14:23:29.600Z,26.99
2022-12-11T14:25:56.207Z,26.82
2022-12-11T14:28:22.597Z,27.08
2022-12-11T14:30:49.322Z,27.80
2022-12-11T14:33:16.026Z,28.54
2022-12-11T14:35:45.149Z,28.48
2022-12-11T14:38:14.061Z,26.70
2022-12-11T14:40:40.544Z,26.62
2022-12-11T14:43:07.016Z,26.83
2022-12-11T14:45:34.606Z,25.51
2022-12-11T14:48:01.515Z,26.16
2022-12-11T14:50:28.953Z,27.55
2022-12-11T14:52:55.361Z,27.42
2022-12-11T14:55:21.707Z,29.67
2022-12-11T14:57:50.358Z,26.99
2022-12-11T15:00:17.102Z,27.21
2022-12-11T15:02:43.977Z,27.23
2022-12-11T15:05:10.456Z,26.91
2022-12-11T15:07:36.849Z,27.58
2022-12-11T15:10:03.400Z,27.40
2022-12-11T15:12:29.790Z,26.57
2022-12-11T15:14:56.631Z,27.10
2022-12-11T15:17:23.163Z,27.64
2022-12-11T15:19:50.957Z,26.88
2022-12-11T15:22:17.352Z,27.13
2022-12-11T15:24:43.771Z,26.84
2022-12-11T15:27:11.676Z,26.98
2022-12-11T15:29:38.007Z,27.14
2022-12-11T15:32:04.505Z,26.61
2022-12-11T15:34:31.089Z,27.28
2022-12-11T15:36:57.444Z,26.11
2022-12-11T15:39:24.014Z,26.44
2022-12-11T15:41:50.584Z,27.71
2022-12-11T15:44:17.203Z,27.27
2022-12-11T15:46:44.033Z,27.19
2022-12-11T15:49:10.424Z,26.52
2022-12-11T15:51:42.652Z,26.87
2022-12-11T15:54:09.756Z,28.24
2022-12-11T15:56:36.606Z,28.23
2022-12-11T15:59:03.171Z,30.23
2022-12-11T16:01:29.746Z,30.00
2022-12-11T16:04:01.702Z,31.20
2022-12-11T16:06:31.441Z,29.69
2022-12-11T16:08:57.892Z,29.28
2022-12-11T16:11:24.387Z,31.39
2022-12-11T16:13:50.790Z,40.64
2022-12-11T16:16:17.355Z,33.58
2022-12-11T16:18:43.847Z,28.48
2022-12-11T16:21:10.725Z,28.87
2022-12-11T16:23:37.116Z,29.14
2022-12-11T16:26:03.681Z,28.56
2022-12-11T16:28:32.519Z,29.92
2022-12-11T16:30:59.111Z,32.39
2022-12-11T16:33:25.497Z,32.60
2022-12-11T16:35:52.408Z,30.91
2022-12-11T16:38:18.818Z,31.48
2022-12-11T16:40:45.714Z,32.93
2022-12-11T16:43:14.573Z,35.14
2022-12-11T16:45:40.955Z,45.80
2022-12-11T16:48:07.352Z,43.96
2022-12-11T16:50:34.381Z,38.77
2022-12-11T16:53:01.099Z,40.57
2022-12-11T16:55:30.277Z,40.10
2022-12-11T16:57:57.156Z,38.37
2022-12-11T17:00:23.883Z,35.27
2022-12-11T17:02:50.532Z,32.72
2022-12-11T17:05:16.972Z,36.30
2022-12-11T17:07:43.358Z,37.21
2022-12-11T17:10:10.070Z,40.50
2022-12-11T17:12:36.462Z,45.48
2022-12-11T17:15:03.370Z,43.13
2022-12-11T17:17:29.806Z,40.01
2022-12-11T17:19:56.383Z,40.54
2022-12-11T17:22:22.890Z,40.21
2022-12-11T17:24:51.569Z,40.28
2022-12-11T17:27:18.198Z,40.07
2022-12-11T17:29:44.610Z,38.48
2022-12-11T17:32:11.023Z,41.13
2022-12-11T17:34:38.683Z,40.81
2022-12-11T17:37:07.749Z,39.51
2022-12-11T17:39:34.440Z,38.91
2022-12-11T17:42:01.932Z,36.20
2022-12-11T17:44:28.547Z,38.59
2022-12-11T17:46:55.961Z,43.19
2022-12-11T17:49:22.511Z,39.71
2022-12-11T17:51:49.082Z,39.04
2022-12-11T17:54:15.530Z,38.47
2022-12-11T17:56:41.916Z,37.25
2022-12-11T17:59:08.664Z,35.80
2022-12-11T18:01:37.953Z,37.23
2022-12-11T18:04:05.310Z,40.42
2022-12-11T18:06:31.705Z,38.12
2022-12-11T18:08:58.292Z,39.67
2022-12-11T18:11:25.221Z,40.99
2022-12-11T18:13:52.634Z,39.74
2022-12-11T18:16:19.189Z,38.65
2022-12-11T18:18:45.766Z,38.56
2022-12-11T18:21:12.148Z,38.90
2022-12-11T18:23:38.908Z,38.86
2022-12-11T18:26:05.480Z,37.38
2022-12-11T18:28:32.195Z,37.27
2022-12-11T18:30:59.279Z,36.80
2022-12-11T18:33:25.692Z,34.69
2022-12-11T18:35:52.087Z,34.70
2022-12-11T18:38:18.443Z,36.25
2022-12-11T18:40:44.776Z,36.24
2022-12-11T18:43:11.415Z,37.61
2022-12-11T18:45:37.997Z,36.22
2022-12-11T18:48:04.374Z,35.18
2022-12-11T18:50:31.229Z,35.28
2022-12-11T18:52:57.789Z,36.06
2022-12-11T18:55:24.177Z,35.65
2022-12-11T18:57:50.642Z,36.07
2022-12-11T19:00:17.365Z,34.22
2022-12-11T19:02:43.723Z,35.69
2022-12-11T19:05:10.370Z,36.01
2022-12-11T19:07:37.123Z,35.85
2022-12-11T19:10:03.519Z,36.07
2022-12-11T19:12:30.197Z,37.27
2022-12-11T19:14:56.575Z,37.13
2022-12-11T19:17:23.570Z,34.31
2022-12-11T19:19:50.157Z,33.25
2022-12-11T19:22:17.199Z,30.49
2022-12-11T19:24:44.696Z,31.26
2022-12-11T19:27:13.702Z,31.61
2022-12-11T19:29:42.361Z,30.72
2022-12-11T19:32:08.824Z,33.38
2022-12-11T19:34:35.215Z,34.10
2022-12-11T19:37:01.711Z,33.42
2022-12-11T19:39:28.163Z,32.80
2022-12-11T19:41:55.204Z,32.33
2022-12-11T19:44:21.670Z,32.33
2022-12-11T19:46:48.329Z,33.90
2022-12-11T19:49:14.788Z,33.23
2022-12-11T19:51:41.137Z,32.97
2022-12-11T19:54:07.505Z,32.30
2022-12-11T19:56:36.319Z,32.86
2022-12-11T19:59:03.063Z,32.19
2022-12-11T20:01:29.437Z,31.51
2022-12-11T20:03:56.173Z,31.61
2022-12-11T20:06:23.963Z,32.13
2022-12-11T20:08:51.427Z,31.50
2022-12-11T20:11:18.933Z,31.56
2022-12-11T20:13:45.594Z,33.13
2022-12-11T20:16:13.127Z,35.85
2022-12-11T20:18:39.595Z,33.84
2022-12-11T20:21:06.010Z,35.82
2022-12-11T20:23:32.488Z,36.06
2022-12-11T20:25:59.147Z,32.42
2022-12-11T20:28:25.615Z,33.52
2022-12-11T20:30:52.197Z,34.42
2022-12-11T20:33:18.681Z,33.25
2022-12-11T20:35:45.058Z,34.11
2022-12-11T20:38:11.410Z,39.61
2022-12-11T20:40:37.862Z,46.58
2022-12-11T20:43:04.307Z,44.32
2022-12-11T20:45:33.135Z,43.64
2022-12-11T20:47:59.585Z,38.64
2022-12-11T20:50:31.262Z,33.29
2022-12-11T20:52:57.607Z,31.02
2022-12-11T20:55:25.409Z,31.13
2022-12-11T20:57:52.005Z,31.70
2022-12-11T21:00:18.564Z,31.61
2022-12-11T21:02:45.028Z,31.88
2022-12-11T21:05:11.772Z,31.04
2022-12-11T21:07:38.363Z,31.97
2022-12-11T21:10:05.994Z,29.09
2022-12-11T21:12:32.569Z,28.51
2022-12-11T21:14:59.001Z,28.10
2022-12-11T21:17:25.589Z,27.28
2022-12-11T21:19:51.984Z,26.57
2022-12-11T21:22:18.861Z,26.51
2022-12-11T21:24:45.314Z,26.60
2022-12-11T21:27:11.688Z,26.44
2022-12-11T21:29:38.451Z,27.11
2022-12-11T21:32:04.875Z,28.28
2022-12-11T21:34:31.361Z,28.88
2022-12-11T21:36:57.751Z,29.32
2022-12-11T21:39:24.176Z,28.64
2022-12-11T21:41:50.516Z,29.79
2022-12-11T21:47:03.420Z,26.64
2022-12-11T21:49:30.364Z,26.35
2022-12-11T21:51:57.070Z,27.02
2022-12-11T21:54:24.735Z,27.00
2022-12-11T21:56:51.107Z,27.48
2022-12-11T21:59:17.454Z,26.53
2022-12-11T22:01:43.805Z,25.58
2022-12-11T22:04:10.322Z,25.76
2022-12-11T22:06:36.721Z,24.97
2022-12-11T22:09:03.122Z,25.04
2022-12-11T22:11:29.506Z,26.12
2022-12-11T22:13:56.337Z,25.66
2022-12-11T22:16:22.765Z,25.20
2022-12-11T22:18:49.174Z,24.84
2022-12-11T22:21:16.227Z,23.76
2022-12-11T22:23:42.918Z,26.09
2022-12-11T22:26:09.277Z,25.58
2022-12-11T22:28:36.634Z,24.46
2022-12-11T22:31:03.283Z,23.55
2022-12-11T22:33:31.707Z,22.81
2022-12-11T22:35:58.700Z,22.78
2022-12-11T22:38:25.312Z,23.14
2022-12-11T22:40:51.718Z,22.27
2022-12-11T22:43:18.070Z,22.01
2022-12-11T22:45:44.530Z,21.61
2022-12-11T22:48:11.120Z,22.25
2022-12-11T22:50:37.467Z,21.57
2022-12-11T22:53:04.068Z,20.86
2022-12-11T22:55:30.696Z,20.16
2022-12-11T22:57:57.142Z,19.64
2022-12-11T23:00:25.120Z,19.11
2022-12-11T23:02:51.580Z,19.40
2022-12-11T23:05:18.214Z,19.51
2022-12-11T23:07:44.710Z,18.67
2022-12-11T23:10:11.104Z,18.90
2022-12-11T23:12:37.506Z,17.64
2022-12-11T23:15:03.949Z,16.52
2022-12-11T23:17:30.290Z,15.83
2022-12-11T23:19:56.673Z,15.90
2022-12-11T23:22:23.068Z,16.08
2022-12-11T23:24:50.545Z,16.44
2022-12-11T23:27:17.011Z,16.38
2022-12-11T23:29:43.391Z,15.65
2022-12-11T23:32:09.783Z,15.60
2022-12-11T23:34:36.135Z,15.38
2022-12-11T23:37:04.055Z,14.54
2022-12-11T23:39:30.679Z,13.46
2022-12-11T23:41:57.009Z,15.38
2022-12-11T23:44:23.356Z,15.21
2022-12-11T23:46:49.730Z,14.68
2022-12-11T23:49:16.108Z,14.25
2022-12-11T23:51:43.242Z,14.49
2022-12-11T23:54:09.573Z,14.13
2022-12-11T23:56:36.117Z,14.29
2022-12-11T23:59:02.477Z,13.78
